Flight Track Log - Related Links

Times and Time Zones

All times are in EST time to prevent confusion due to time zone crossing. See the N302QS flight status page for this flight to view local times or setup timezone preferences in your user account.

Time Position Orientation Groundspeed Altitude Reporting Facility
EST Latitude Longitude Course Direction KTS MPH feet Rate Location/Type
Fri 05:31:51 PM 38.8642 -77.7711 254° West 239 275 14,600  Level FlightAware ADS-B (KWWD)
Fri 05:32:03 PM 38.8630 -77.7907 265° West 239 275 15,500 3,021 Climbing FlightAware ADS-B (KWWD)
Fri 05:36:33 PM 38.8536 -78.2113 268° West 285 328 28,800 2,707 Climbing FlightAware ADS-B (KWWD)
Fri 05:37:31 PM 38.8392 -78.2942 268° West 285 328 30,300 1,780 Climbing Washington Center
Fri 05:38:31 PM 38.8203 -78.3972 257° West 297 342 32,300 1,785 Climbing Washington Center
Fri 05:39:32 PM 38.8011 -78.5058 257° West 303 349 33,900 1,736 Climbing Washington Center
Fri 05:40:32 PM 38.7817 -78.6169 257° West 319 367 35,800 1,831 Climbing Washington Center
Fri 05:41:30 PM 38.7622 -78.7253 257° West 319 367 37,500 1,780 Climbing Washington Center
Fri 05:42:30 PM 38.7447 -78.8311 258° West 314 361 39,300 1,328 Climbing Washington Center
Fri 05:43:32 PM 38.7253 -78.9339 256° West 314 361 40,200 885 Climbing Washington Center
Fri 05:44:32 PM 38.7056 -79.0422 257° West 314 361 41,100 1,017 Climbing Washington Center
Fri 05:45:30 PM 38.6878 -79.1478 258° West 314 361 42,200 966 Climbing Washington Center
Fri 05:46:30 PM 38.6719 -79.2561 259° West 314 361 43,000 397 Climbing Washington Center
Fri 05:47:31 PM 38.6519 -79.3694 257° West 319 367 43,000  Level Washington Center
Fri 05:48:32 PM 38.6267 -79.5036 256° West 337 388 43,000  Level Washington Center
Fri 05:49:33 PM 38.6017 -79.6297 256° West 357 411 43,000  Level Washington Center
Fri 05:50:31 PM 38.5764 -79.7558 256° West 368 423 43,000  Level Washington Center
Fri 05:51:31 PM 38.5531 -79.8872 257° West 374 430 43,000  Level Washington Center
Fri 05:53:51 PM 38.4953 -80.1733 256° West 374 430 43,000  Level Indianapolis Center
Fri 05:54:52 PM 38.4714 -80.2983 256° West 373 429 43,000  Level Indianapolis Center
Fri 05:55:54 PM 38.4464 -80.4242 256° West 375 432 43,000  Level Indianapolis Center
Fri 05:56:55 PM 38.4186 -80.5714 257° West 374 430 43,000  Level Indianapolis Center
Fri 05:57:56 PM 38.3933 -80.7008 256° West 374 430 43,000  Level Indianapolis Center
Fri 05:58:58 PM 38.3672 -80.8292 255° West 374 430 43,000  Level Indianapolis Center
Fri 06:05:11 PM 38.2040 -81.6374 255° West 372 428 43,000  Level FlightAware ADS-B
Fri 06:05:42 PM 38.1904 -81.7031 255° West 372 428 43,000  Level FlightAware ADS-B
Fri 06:06:14 PM 38.1766 -81.7700 255° West 372 428 43,000  Level FlightAware ADS-B
Fri 06:06:45 PM 38.1628 -81.8367 255° West 372 428 43,000  Level FlightAware ADS-B
Fri 06:07:16 PM 38.1492 -81.9021 255° West 372 428 43,000  Level FlightAware ADS-B
Fri 06:07:47 PM 38.1354 -81.9678 255° West 372 428 43,000  Level FlightAware ADS-B
Fri 06:08:18 PM 38.1219 -82.0323 255° West 371 427 43,000  Level FlightAware ADS-B
Fri 06:08:48 PM 38.1085 -82.0963 255° West 371 427 43,000  Level FlightAware ADS-B
Fri 06:09:19 PM 38.0951 -82.1597 255° West 370 426 43,000  Level FlightAware ADS-B
Fri 06:09:50 PM 38.0813 -82.2250 255° West 370 426 43,000  Level FlightAware ADS-B
Fri 06:10:21 PM 38.0673 -82.2912 255° West 371 427 43,000  Level FlightAware ADS-B
Fri 06:10:55 PM 38.0524 -82.3612 255° West 370 426 43,000  Level FlightAware ADS-B
Fri 06:11:38 PM 38.0330 -82.4518 255° West 370 426 43,000  Level FlightAware ADS-B
Fri 06:12:20 PM 38.0144 -82.5389 255° West 369 425 43,000  Level FlightAware ADS-B
Fri 06:12:50 PM 38.0009 -82.6014 255° West 369 425 43,000  Level FlightAware ADS-B
Fri 06:13:25 PM 37.9850 -82.6755 255° West 368 423 43,000  Level FlightAware ADS-B
Fri 06:13:56 PM 37.9710 -82.7399 255° West 368 423 43,000  Level FlightAware ADS-B
Fri 06:14:27 PM 37.9572 -82.8038 255° West 368 423 43,000  Level FlightAware ADS-B
Fri 06:14:57 PM 37.9436 -82.8661 255° West 367 422 43,000  Level FlightAware ADS-B
Fri 06:15:29 PM 37.9289 -82.9330 254° West 367 422 43,000  Level FlightAware ADS-B
Fri 06:16:00 PM 37.9153 -82.9953 255° West 367 422 43,000  Level FlightAware ADS-B
Fri 06:16:23 PM 37.9047 -83.0433 254° West 367 422 43,000  Level FlightAware ADS-B
Fri 06:16:43 PM 37.8923 -83.0829 248° West 369 425 43,000 -1,200 Level FlightAware ADS-B
Fri 06:17:48 PM 37.8327 -83.2093 239° Southwest 386 444 41,300 -1,750 Descending FlightAware ADS-B
Fri 06:18:19 PM 37.8046 -83.2683 239° Southwest 375 432 40,200 -2,182 Descending FlightAware ADS-B
Fri 06:18:54 PM 37.7737 -83.3328 239° Southwest 371 427 38,900 -2,466 Descending FlightAware ADS-B
Fri 06:19:32 PM 37.7393 -83.4045 239° Southwest 374 430 37,200 -2,747 Descending FlightAware ADS-B
Fri 06:20:17 PM 37.6984 -83.4897 239° Southwest 379 436 35,100 -2,214 Descending FlightAware ADS-B
Fri 06:20:56 PM 37.6620 -83.5654 239° Southwest 395 455 34,100 -760 Descending FlightAware ADS-B
Fri 06:22:47 PM 37.5561 -83.7839 239° Southwest 397 457 33,200 -760 Descending FlightAware ADS-B
Fri 06:23:26 PM 37.5173 -83.8637 239° Southwest 405 466 32,200 -935 Descending FlightAware ADS-B
Fri 06:24:04 PM 37.4799 -83.9403 238° Southwest 407 468 32,000 -133 Descending FlightAware ADS-B
Fri 06:24:56 PM 37.4292 -84.0442 238° Southwest 404 465 32,000  Level FlightAware ADS-B
Fri 06:25:32 PM 37.3942 -84.1157 238° Southwest 403 464 32,000  Level FlightAware ADS-B
Fri 06:26:03 PM 37.3641 -84.1768 238° Southwest 403 464 32,000  Level FlightAware ADS-B
Fri 06:26:34 PM 37.3339 -84.2383 238° Southwest 402 463 32,000  Level FlightAware ADS-B
Fri 06:27:04 PM 37.3047 -84.2976 238° Southwest 402 463 32,000  Level FlightAware ADS-B
Fri 06:27:35 PM 37.2742 -84.3594 238° Southwest 402 463 32,000  Level FlightAware ADS-B
Fri 06:28:05 PM 37.2448 -84.4188 238° Southwest 401 461 32,000  Level FlightAware ADS-B
Fri 06:28:37 PM 37.2134 -84.4821 238° Southwest 401 461 32,000  Level FlightAware ADS-B
Fri 06:29:07 PM 37.1838 -84.5417 238° Southwest 402 463 32,000  Level FlightAware ADS-B
Fri 06:29:50 PM 37.1420 -84.6258 238° Southwest 401 461 32,000  Level FlightAware ADS-B
Fri 06:30:22 PM 37.1096 -84.6906 238° Southwest 401 461 32,000  Level FlightAware ADS-B
Fri 06:30:53 PM 37.0793 -84.7513 238° Southwest 402 463 32,000  Level FlightAware ADS-B
Fri 06:31:24 PM 37.0486 -84.8126 238° Southwest 402 463 32,000  Level FlightAware ADS-B
Fri 06:31:55 PM 37.0188 -84.8721 238° Southwest 401 461 32,000 -290 Level FlightAware ADS-B
Fri 06:32:26 PM 36.9876 -84.9341 238° Southwest 397 457 31,700 -1,355 Descending FlightAware ADS-B
Fri 06:32:57 PM 36.9574 -84.9942 238° Southwest 411 473 30,600 -2,323 Descending FlightAware ADS-B
Fri 06:33:28 PM 36.9252 -85.0580 238° Southwest 415 478 29,300 -2,557 Descending FlightAware ADS-B
Fri 06:33:58 PM 36.8943 -85.1190 238° Southwest 413 475 28,000 -2,557 Descending FlightAware ADS-B
Fri 06:34:29 PM 36.8635 -85.1799 238° Southwest 410 472 26,700 -2,533 Descending FlightAware ADS-B
Fri 06:35:28 PM 36.8025 -85.3002 238° Southwest 414 476 24,200 -2,494 Descending FlightAware ADS-B
Fri 06:35:58 PM 36.7721 -85.3599 238° Southwest 406 467 23,000 -2,066 Descending FlightAware ADS-B
Fri 06:36:29 PM 36.7417 -85.4195 238° Southwest 398 458 22,100 -1,869 Descending FlightAware ADS-B
Fri 06:36:59 PM 36.7142 -85.4784 240° Southwest 388 447 21,100 -2,190 Descending FlightAware ADS-B
Fri 06:37:32 PM 36.6841 -85.5432 240° Southwest 385 443 19,800 -2,344 Descending FlightAware ADS-B
Fri 06:38:03 PM 36.6566 -85.6017 240° Southwest 381 438 18,600 -2,308 Descending FlightAware ADS-B
Fri 06:38:37 PM 36.6264 -85.6656 240° Southwest 382 440 17,300 -2,625 Descending FlightAware ADS-B
Fri 06:39:07 PM 36.5999 -85.7216 239° Southwest 370 426 15,800 -2,459 Descending FlightAware ADS-B
Fri 06:39:38 PM 36.5737 -85.7770 240° Southwest 364 419 14,800 -1,279 Descending FlightAware ADS-B
Fri 06:40:08 PM 36.5558 -85.8139 240° Southwest 373 429 14,500 -2,219 Descending Memphis Center
Fri 06:40:51 PM 36.5139 -85.9019 239° Southwest 360 414 12,100 -2,571 Descending Indianapolis Center
Fri 06:41:53 PM 36.4694 -85.9933 239° Southwest 311 358 10,000 -1,024 Descending Indianapolis Center
Fri 06:42:54 PM 36.4289 -86.0811 240° Southwest 291 335 10,000  Level Indianapolis Center
Fri 06:43:55 PM 36.3853 -86.1714 239° Southwest 300 345 10,000  Level Indianapolis Center
Fri 06:44:56 PM 36.3403 -86.2642 239° Southwest 307 353 10,000 -49 Level Indianapolis Center
Fri 06:45:58 PM 36.2994 -86.3492 239° Southwest 289 333 9,900 -780 Descending Indianapolis Center
Fri 06:46:59 PM 36.2606 -86.4286 239° Southwest 272 313 8,400 -1,377 Descending Indianapolis Center
Fri 06:48:00 PM 36.2231 -86.5050 239° Southwest 260 299 7,100 -1,328 Descending Indianapolis Center
Fri 06:49:01 PM 36.1583 -86.5408 204° Southwest 254 292 5,700 -1,145 Descending Indianapolis Center
Fri 06:50:11 PM 36.0833 -86.5667 196° South 223 257 4,600 -1,200 Descending Nashville TRACON
Fri 06:51:11 PM 36.0333 -86.5833 195° South 219 252 3,100 -1,050 Descending Nashville TRACON
Fri 06:52:11 PM 36.0167 -86.6500 253° West 205 236 2,500 -632 Descending Nashville TRACON
Fri 06:53:05 PM 36.0500 -86.6833 321° Northwest 173 199 1,900 -684 Descending Nashville TRACON
Fri 06:54:05 PM 36.0833 -86.6833 360° North 111 128 1,200 -542 Descending Nashville TRACON
Fri 06:55:29 PM 36.1228 -86.6633 22° Northeast 126 145 600 -429 Descending Memphis Center

Login

Don't have an account? Register now (free) for customized features, flight alerts, and more!